Grande Europa — ICGE — position and weather

sailwx.info

Track history (hours):
 
Tides and Currents Weather Stations Pressure Air Temp Water Temp Dewpoint Dewpoint Depression Visibility Wind Speed Wind Dir Waves Ship Positions

Grande Europa

Last reported at 2017-Mar-23 12:33 UTC. Time now 2017-Mar-23 12:33 UTC.
Position N 55°28' E 008°25'.

Length 183 m; draft 8.3 m.

Type: Ship. MMSI: 247206000.

Date/timePositionNaut miles runAvg speedWind from/ knotsBaromVisibWave heightAir tempDewpointWater temp
2017-Mar-23 12:33N 55°28' E 008°25'1 1.0
2017-Mar-23 11:32N 55°28' E 008°27'0 0.0
2017-Mar-23 10:32N 55°28' E 008°27'0 0.0
2017-Mar-23 09:23N 55°28' E 008°27'0 0.0
2017-Mar-23 08:32N 55°28' E 008°27'0 0.0
2017-Mar-23 07:32N 55°28' E 008°27'0 0.0
2017-Mar-23 06:32N 55°28' E 008°27'0 0.0
2017-Mar-23 05:32N 55°28' E 008°27'0 0.3
2017-Mar-23 04:34N 55°28' E 008°27'8 7.8
2017-Mar-23 03:33N 55°25' E 008°13'1514.7
2017-Mar-23 02:33N 55°16' E 007°53'1515.0
2017-Mar-23 01:33N 55°07' E 007°33'1514.9
2017-Mar-23 00:33N 54°58' E 007°12'1514.8
2017-Mar-22 23:33N 54°51' E 006°49'23711.7
2017-Mar-22 03:23N 51°49' E 002°36'1214.0
2017-Mar-22 02:33N 51°39' E 002°25'1414.4
2017-Mar-22 01:34N 51°29' E 002°10'1514.7
2017-Mar-22 00:34N 51°17' E 001°55'1514.9
2017-Mar-21 23:33N 51°06' E 001°40'1514.9
2017-Mar-21 22:34N 50°53' E 001°27'1715.7
2017-Mar-21 21:30N 50°38' E 001°16'1516.4
2017-Mar-21 20:34N 50°30' E 000°55'1716.7
2017-Mar-21 19:31N 50°25' E 000°29'1616.6
2017-Mar-21 18:34N 50°22' E 000°05'1716.8
2017-Mar-21 17:33N 50°20' W 000°22'3618.1
2017-Mar-21 15:34N 50°16' W 001°18'1919.3
2017-Mar-21 14:33N 50°14' W 001°48'2519.6
2017-Mar-21 13:18N 50°11' W 002°26'1419.2
2017-Mar-21 12:34N 50°09' W 002°48'1918.9
2017-Mar-21 11:33N 50°06' W 003°17'1918.8
2017-Mar-21 10:34N 50°04' W 003°46'1818.5
2017-Mar-21 09:34N 50°01' W 004°15'2018.4
2017-Mar-21 08:29N 49°58' W 004°45'3518.1
2017-Mar-21 06:32N 49°54' W 005°40'1414.5
2017-Mar-21 05:34N 49°58' W 006°00'1817.8
2017-Mar-21 04:33N 50°16' W 006°01'9017.6
2017-Mar-20 23:27N 51°22' W 007°39'1718.4
2017-Mar-20 22:33N 51°33' W 007°58'1717.4
2017-Mar-20 21:33N 51°47' W 008°15'4 3.9
2017-Mar-20 20:33N 51°50' W 008°20'0 0.0
2017-Mar-20 19:33N 51°50' W 008°20'0 0.0
2017-Mar-20 18:33N 51°50' W 008°20'0 0.0
2017-Mar-20 17:33N 51°50' W 008°20'0 0.0
2017-Mar-20 16:32N 51°50' W 008°20'0 0.0
2017-Mar-20 15:33N 51°50' W 008°20'0 0.0
2017-Mar-20 14:32N 51°50' W 008°20'0 0.0
2017-Mar-20 13:33N 51°50' W 008°20'0 0.0
2017-Mar-20 12:32N 51°50' W 008°20'0 0.0
2017-Mar-20 11:33N 51°50' W 008°20'0 0.0
2017-Mar-20 10:30N 51°50' W 008°20'1 1.3
2017-Mar-20 09:33N 51°51' W 008°18'9 9.3
2017-Mar-20 08:33N 51°45' W 008°07'1717.2
2017-Mar-20 07:33N 51°42' W 007°39'1816.9
2017-Mar-20 06:31N 51°40' W 007°11'8416.8
2017-Mar-20 01:33N 51°30' W 004°58'1817.6
2017-Mar-20 00:33N 51°27' W 004°30'2217.7
2017-Mar-19 23:19N 51°24' W 003°55'1417.0
2017-Mar-19 22:30N 51°22' W 003°33'1313.6
2017-Mar-19 21:31N 51°22' W 003°12'1212.9
2017-Mar-19 20:33N 51°28' W 002°54'7 6.7
2017-Mar-19 19:33N 51°30' W 002°44'0 0.4
2017-Mar-19 18:33N 51°30' W 002°43'0 0.0
2017-Mar-19 17:33N 51°30' W 002°43'0 0.0
2017-Mar-19 16:33N 51°30' W 002°43'0 0.0
2017-Mar-19 15:33N 51°30' W 002°43'0 0.0
2017-Mar-19 14:33N 51°30' W 002°43'0 0.0
2017-Mar-19 13:33N 51°30' W 002°43'0 0.0
2017-Mar-19 12:33N 51°30' W 002°43'0 0.0
2017-Mar-19 11:33N 51°30' W 002°43'0 0.0
2017-Mar-19 10:33N 51°30' W 002°43'0 0.0
2017-Mar-19 09:33N 51°30' W 002°43'0 0.0
2017-Mar-19 08:33N 51°30' W 002°43'0 0.0
2017-Mar-19 07:33N 51°30' W 002°43'0 0.0
2017-Mar-19 06:33N 51°30' W 002°43'0 0.0
2017-Mar-19 05:33N 51°30' W 002°43'0 0.0
2017-Mar-19 04:33N 51°30' W 002°43'0 0.0
2017-Mar-19 03:33N 51°30' W 002°43'0 0.0
2017-Mar-19 02:33N 51°30' W 002°43'0 0.0
2017-Mar-19 01:33N 51°30' W 002°43'0 0.0
2017-Mar-19 00:33N 51°30' W 002°43'0 0.0
2017-Mar-18 23:33N 51°30' W 002°43'0 0.0
2017-Mar-18 22:33N 51°30' W 002°43'0 0.0
2017-Mar-18 21:33N 51°30' W 002°43'0 0.1
2017-Mar-18 20:33N 51°30' W 002°43'1 0.8
2017-Mar-18 19:33N 51°30' W 002°44'1312.7
2017-Mar-18 18:33N 51°25' W 003°02'2211.2
2017-Mar-18 16:33N 51°21' W 003°38'1313.3
2017-Mar-18 15:33N 51°19' W 003°59'8 7.8
2017-Mar-18 14:30N 51°19' W 003°45'1110.6
2017-Mar-18 13:29N 51°18' W 004°02'1712.2
2017-Mar-18 12:07N 51°25' W 004°27'610.3
2017-Mar-18 11:33N 51°20' W 004°32'1413.7
2017-Mar-18 10:33N 51°06' W 004°37'1414.0
2017-Mar-18 09:33N 50°57' W 004°53'1514.8
2017-Mar-18 08:33N 50°52' W 005°16'1515.2
2017-Mar-18 07:33N 50°48' W 005°39'1311.8
2017-Mar-18 06:26N 50°39' W 005°54'1213.3
2017-Mar-18 05:32N 50°27' W 005°54'5313.1
2017-Mar-18 01:32N 49°35' W 006°00'1912.7
2017-Mar-18 00:04N 49°17' W 006°10'59516.2
2017-Mar-16 11:26N 39°43' W 009°51'1517.5
2017-Mar-16 10:33N 39°28' W 009°51'1817.6
2017-Mar-16 09:33N 39°11' W 009°52'1717.4
2017-Mar-16 08:33N 38°53' W 009°51'1717.2
2017-Mar-16 07:33N 38°36' W 009°48'1817.5
2017-Mar-16 06:33N 38°27' W 009°29'1717.1
2017-Mar-16 05:33N 38°21' W 009°08'1414.4
2017-Mar-16 04:33N 38°31' W 008°54'1 1.2
2017-Mar-16 03:28N 38°31' W 008°53'0 0.0
2017-Mar-16 02:31N 38°31' W 008°53'0 0.0
2017-Mar-16 01:32N 38°31' W 008°53'0 0.0
2017-Mar-16 00:31N 38°31' W 008°53'0 0.0
2017-Mar-15 23:32N 38°31' W 008°53'0 0.0
2017-Mar-15 22:31N 38°31' W 008°53'0 0.0
2017-Mar-15 21:29N 38°31' W 008°53'0 0.0
2017-Mar-15 20:31N 38°31' W 008°53'0 0.0
2017-Mar-15 19:31N 38°31' W 008°53'0 0.0
2017-Mar-15 18:34N 38°31' W 008°53'3 2.9
2017-Mar-15 17:34N 38°29' W 008°56'8 8.3
2017-Mar-15 16:34N 38°23' W 009°03'1010.0
2017-Mar-15 15:33N 38°13' W 009°06'1414.3
2017-Mar-15 14:33N 37°59' W 009°08'1414.3
2017-Mar-15 13:33N 37°45' W 009°11'1414.2
2017-Mar-15 12:33N 37°31' W 009°14'19314.5
2017-Mar-14 23:15N 35°57' W 005°44'1318.1
2017-Mar-14 22:34N 35°60' W 005°29'1817.6
2017-Mar-14 21:34N 36°04' W 005°08'  
Track history (hours):
 
Tides and Currents Weather Stations Pressure Air Temp Water Temp Dewpoint Dewpoint Depression Visibility Wind Speed Wind Dir Waves Ship Positions

Grande Europa

Last reported at 2017-Mar-23 12:33 UTC. Time now 2017-Mar-23 12:33 UTC.
Position N 55°28' E 008°25'.

Length 183 m; draft 8.3 m.

Type: Ship. MMSI: 247206000.

Date/timePositionNaut miles runAvg speedWind from/ knotsBaromVisibWave heightAir tempDewpointWater temp
2017-Mar-23 12:33N 55°28' E 008°25'1 1.0
2017-Mar-23 11:32N 55°28' E 008°27'0 0.0
2017-Mar-23 10:32N 55°28' E 008°27'0 0.0
2017-Mar-23 09:23N 55°28' E 008°27'0 0.0
2017-Mar-23 08:32N 55°28' E 008°27'0 0.0
2017-Mar-23 07:32N 55°28' E 008°27'0 0.0
2017-Mar-23 06:32N 55°28' E 008°27'0 0.0
2017-Mar-23 05:32N 55°28' E 008°27'0 0.3
2017-Mar-23 04:34N 55°28' E 008°27'8 7.8
2017-Mar-23 03:33N 55°25' E 008°13'1514.7
2017-Mar-23 02:33N 55°16' E 007°53'1515.0
2017-Mar-23 01:33N 55°07' E 007°33'1514.9
2017-Mar-23 00:33N 54°58' E 007°12'1514.8
2017-Mar-22 23:33N 54°51' E 006°49'23711.7
2017-Mar-22 03:23N 51°49' E 002°36'1214.0
2017-Mar-22 02:33N 51°39' E 002°25'1414.4
2017-Mar-22 01:34N 51°29' E 002°10'1514.7
2017-Mar-22 00:34N 51°17' E 001°55'1514.9
2017-Mar-21 23:33N 51°06' E 001°40'1514.9
2017-Mar-21 22:34N 50°53' E 001°27'1715.7
2017-Mar-21 21:30N 50°38' E 001°16'1516.4
2017-Mar-21 20:34N 50°30' E 000°55'1716.7
2017-Mar-21 19:31N 50°25' E 000°29'1616.6
2017-Mar-21 18:34N 50°22' E 000°05'1716.8
2017-Mar-21 17:33N 50°20' W 000°22'3618.1
2017-Mar-21 15:34N 50°16' W 001°18'1919.3
2017-Mar-21 14:33N 50°14' W 001°48'2519.6
2017-Mar-21 13:18N 50°11' W 002°26'1419.2
2017-Mar-21 12:34N 50°09' W 002°48'1918.9
2017-Mar-21 11:33N 50°06' W 003°17'1918.8
2017-Mar-21 10:34N 50°04' W 003°46'1818.5
2017-Mar-21 09:34N 50°01' W 004°15'2018.4
2017-Mar-21 08:29N 49°58' W 004°45'3518.1
2017-Mar-21 06:32N 49°54' W 005°40'1414.5
2017-Mar-21 05:34N 49°58' W 006°00'1817.8
2017-Mar-21 04:33N 50°16' W 006°01'9017.6
2017-Mar-20 23:27N 51°22' W 007°39'1718.4
2017-Mar-20 22:33N 51°33' W 007°58'1717.4
2017-Mar-20 21:33N 51°47' W 008°15'4 3.9
2017-Mar-20 20:33N 51°50' W 008°20'0 0.0
2017-Mar-20 19:33N 51°50' W 008°20'0 0.0
2017-Mar-20 18:33N 51°50' W 008°20'0 0.0
2017-Mar-20 17:33N 51°50' W 008°20'0 0.0
2017-Mar-20 16:32N 51°50' W 008°20'0 0.0
2017-Mar-20 15:33N 51°50' W 008°20'0 0.0
2017-Mar-20 14:32N 51°50' W 008°20'0 0.0
2017-Mar-20 13:33N 51°50' W 008°20'0 0.0
2017-Mar-20 12:32N 51°50' W 008°20'0 0.0
2017-Mar-20 11:33N 51°50' W 008°20'0 0.0
2017-Mar-20 10:30N 51°50' W 008°20'1 1.3
2017-Mar-20 09:33N 51°51' W 008°18'9 9.3
2017-Mar-20 08:33N 51°45' W 008°07'1717.2
2017-Mar-20 07:33N 51°42' W 007°39'1816.9
2017-Mar-20 06:31N 51°40' W 007°11'8416.8
2017-Mar-20 01:33N 51°30' W 004°58'1817.6
2017-Mar-20 00:33N 51°27' W 004°30'2217.7
2017-Mar-19 23:19N 51°24' W 003°55'1417.0
2017-Mar-19 22:30N 51°22' W 003°33'1313.6
2017-Mar-19 21:31N 51°22' W 003°12'1212.9
2017-Mar-19 20:33N 51°28' W 002°54'7 6.7
2017-Mar-19 19:33N 51°30' W 002°44'0 0.4
2017-Mar-19 18:33N 51°30' W 002°43'0 0.0
2017-Mar-19 17:33N 51°30' W 002°43'0 0.0
2017-Mar-19 16:33N 51°30' W 002°43'0 0.0
2017-Mar-19 15:33N 51°30' W 002°43'0 0.0
2017-Mar-19 14:33N 51°30' W 002°43'0 0.0
2017-Mar-19 13:33N 51°30' W 002°43'0 0.0
2017-Mar-19 12:33N 51°30' W 002°43'0 0.0
2017-Mar-19 11:33N 51°30' W 002°43'0 0.0
2017-Mar-19 10:33N 51°30' W 002°43'0 0.0
2017-Mar-19 09:33N 51°30' W 002°43'0 0.0
2017-Mar-19 08:33N 51°30' W 002°43'0 0.0
2017-Mar-19 07:33N 51°30' W 002°43'0 0.0
2017-Mar-19 06:33N 51°30' W 002°43'0 0.0
2017-Mar-19 05:33N 51°30' W 002°43'0 0.0
2017-Mar-19 04:33N 51°30' W 002°43'0 0.0
2017-Mar-19 03:33N 51°30' W 002°43'0 0.0
2017-Mar-19 02:33N 51°30' W 002°43'0 0.0
2017-Mar-19 01:33N 51°30' W 002°43'0 0.0
2017-Mar-19 00:33N 51°30' W 002°43'0 0.0
2017-Mar-18 23:33N 51°30' W 002°43'0 0.0
2017-Mar-18 22:33N 51°30' W 002°43'0 0.0
2017-Mar-18 21:33N 51°30' W 002°43'0 0.1
2017-Mar-18 20:33N 51°30' W 002°43'1 0.8
2017-Mar-18 19:33N 51°30' W 002°44'1312.7
2017-Mar-18 18:33N 51°25' W 003°02'2211.2
2017-Mar-18 16:33N 51°21' W 003°38'1313.3
2017-Mar-18 15:33N 51°19' W 003°59'8 7.8
2017-Mar-18 14:30N 51°19' W 003°45'1110.6
2017-Mar-18 13:29N 51°18' W 004°02'1712.2
2017-Mar-18 12:07N 51°25' W 004°27'610.3
2017-Mar-18 11:33N 51°20' W 004°32'1413.7
2017-Mar-18 10:33N 51°06' W 004°37'1414.0
2017-Mar-18 09:33N 50°57' W 004°53'1514.8
2017-Mar-18 08:33N 50°52' W 005°16'1515.2
2017-Mar-18 07:33N 50°48' W 005°39'1311.8
2017-Mar-18 06:26N 50°39' W 005°54'1213.3
2017-Mar-18 05:32N 50°27' W 005°54'5313.1
2017-Mar-18 01:32N 49°35' W 006°00'1912.7
2017-Mar-18 00:04N 49°17' W 006°10'59516.2
2017-Mar-16 11:26N 39°43' W 009°51'1517.5
2017-Mar-16 10:33N 39°28' W 009°51'1817.6
2017-Mar-16 09:33N 39°11' W 009°52'1717.4
2017-Mar-16 08:33N 38°53' W 009°51'1717.2
2017-Mar-16 07:33N 38°36' W 009°48'1817.5
2017-Mar-16 06:33N 38°27' W 009°29'1717.1
2017-Mar-16 05:33N 38°21' W 009°08'1414.4
2017-Mar-16 04:33N 38°31' W 008°54'1 1.2
2017-Mar-16 03:28N 38°31' W 008°53'0 0.0
2017-Mar-16 02:31N 38°31' W 008°53'0 0.0
2017-Mar-16 01:32N 38°31' W 008°53'0 0.0
2017-Mar-16 00:31N 38°31' W 008°53'0 0.0
2017-Mar-15 23:32N 38°31' W 008°53'0 0.0
2017-Mar-15 22:31N 38°31' W 008°53'0 0.0
2017-Mar-15 21:29N 38°31' W 008°53'0 0.0
2017-Mar-15 20:31N 38°31' W 008°53'0 0.0
2017-Mar-15 19:31N 38°31' W 008°53'0 0.0
2017-Mar-15 18:34N 38°31' W 008°53'3 2.9
2017-Mar-15 17:34N 38°29' W 008°56'8 8.3
2017-Mar-15 16:34N 38°23' W 009°03'1010.0
2017-Mar-15 15:33N 38°13' W 009°06'1414.3
2017-Mar-15 14:33N 37°59' W 009°08'1414.3
2017-Mar-15 13:33N 37°45' W 009°11'1414.2
2017-Mar-15 12:33N 37°31' W 009°14'19314.5
2017-Mar-14 23:15N 35°57' W 005°44'1318.1
2017-Mar-14 22:34N 35°60' W 005°29'1817.6
2017-Mar-14 21:34N 36°04' W 005°08'  

Dump ship's entire track history